N282SF EDDH-EBBR
Flight info
| Callsign | N282SF |
|---|---|
| Flight time | 1h 10m |
| Altitude | 30000 |
| Route | WSN5C/05 WSN N125 SILQI N872 LILSI/N0275F290 Z310 WOODY |
| Aircraft | SF50/L-BDGRSWY/LB2U2 |
Departure
| Time | 2026-05-07 17:32 |
|---|---|
| Airport | Hamburg Helmut Schmidt Airport (EDDH) |
Arrival
| Time | 2026-05-07 18:42 |
|---|---|
| Airport | Brussels Airport (EBBR) |
| Time | Latitude | Longitude | Altitude | Speed | Heading |
|---|---|---|---|---|---|
| 2026-05-07 13:48 | 53.62738 | 9.98796 | 45 ft | 0 kts | 241° |
| 2026-05-07 14:46 | 53.62738 | 9.98797 | 45 ft | 0 kts | 241° |
| 2026-05-07 15:45 | 53.62738 | 9.98798 | 45 ft | 0 kts | 241° |
| 2026-05-07 17:00 | 53.62738 | 9.98799 | 45 ft | 0 kts | 241° |
| 2026-05-07 17:29 | 53.62734 | 9.98784 | 45 ft | 6 kts | 238° |
| 2026-05-07 17:29 | 53.62718 | 9.98732 | 45 ft | 4 kts | 301° |
| 2026-05-07 17:30 | 53.62750 | 9.98700 | 45 ft | 7 kts | 353° |
| 2026-05-07 17:30 | 53.62789 | 9.98759 | 45 ft | 9 kts | 52° |
| 2026-05-07 17:30 | 53.62835 | 9.98849 | 45 ft | 11 kts | 48° |
| 2026-05-07 17:30 | 53.62890 | 9.98956 | 45 ft | 14 kts | 49° |
| 2026-05-07 17:31 | 53.62959 | 9.99091 | 45 ft | 17 kts | 51° |
| 2026-05-07 17:31 | 53.63038 | 9.99253 | 45 ft | 19 kts | 42° |
| 2026-05-07 17:31 | 53.63148 | 9.99316 | 45 ft | 16 kts | 13° |
| 2026-05-07 17:31 | 53.63249 | 9.99354 | 47 ft | 14 kts | 12° |
| 2026-05-07 17:32 | 53.63361 | 9.99312 | 46 ft | 28 kts | 332° |
| 2026-05-07 17:32 | 53.63725 | 9.99000 | 44 ft | 88 kts | 333° |
| 2026-05-07 17:32 | 53.64291 | 9.98523 | 415 ft | 90 kts | 340° |
| 2026-05-07 17:32 | 53.64664 | 9.98207 | 689 ft | 93 kts | 343° |
| 2026-05-07 17:33 | 53.65575 | 9.97464 | 1087 ft | 126 kts | 338° |
| 2026-05-07 17:33 | 53.66446 | 9.96731 | 1486 ft | 152 kts | 338° |
| 2026-05-07 17:33 | 53.67455 | 9.95865 | 1916 ft | 169 kts | 337° |
| 2026-05-07 17:33 | 53.68500 | 9.94963 | 2596 ft | 170 kts | 338° |
| 2026-05-07 17:34 | 53.69562 | 9.94052 | 3194 ft | 173 kts | 338° |
| 2026-05-07 17:34 | 53.70521 | 9.92839 | 3740 ft | 180 kts | 314° |
| 2026-05-07 17:34 | 53.71144 | 9.90969 | 4339 ft | 183 kts | 290° |
| 2026-05-07 17:34 | 53.71293 | 9.88829 | 4892 ft | 187 kts | 265° |
| 2026-05-07 17:35 | 53.70961 | 9.86600 | 5007 ft | 212 kts | 250° |
| 2026-05-07 17:35 | 53.70433 | 9.84099 | 5009 ft | 240 kts | 250° |
| 2026-05-07 17:35 | 53.69887 | 9.81328 | 5242 ft | 250 kts | 251° |
| 2026-05-07 17:35 | 53.69376 | 9.78680 | 6313 ft | 223 kts | 252° |
| 2026-05-07 17:36 | 53.68914 | 9.76349 | 7305 ft | 196 kts | 252° |
| 2026-05-07 17:36 | 53.68497 | 9.74243 | 7949 ft | 188 kts | 252° |
| 2026-05-07 17:36 | 53.68079 | 9.72132 | 8397 ft | 190 kts | 252° |
| 2026-05-07 17:36 | 53.67663 | 9.70012 | 8864 ft | 191 kts | 253° |
| 2026-05-07 17:37 | 53.67244 | 9.67882 | 9313 ft | 193 kts | 252° |
| 2026-05-07 17:37 | 53.66793 | 9.65596 | 9390 ft | 212 kts | 252° |
| 2026-05-07 17:37 | 53.66350 | 9.63366 | 10246 ft | 191 kts | 253° |
| 2026-05-07 17:37 | 53.65930 | 9.61238 | 10630 ft | 193 kts | 252° |
| 2026-05-07 17:38 | 53.65504 | 9.59087 | 11032 ft | 194 kts | 252° |
| 2026-05-07 17:38 | 53.64922 | 9.57044 | 11406 ft | 195 kts | 234° |
| 2026-05-07 17:38 | 53.64093 | 9.55222 | 11803 ft | 196 kts | 234° |
| 2026-05-07 17:38 | 53.63305 | 9.53351 | 12214 ft | 196 kts | 235° |
| 2026-05-07 17:39 | 53.62509 | 9.51479 | 12618 ft | 197 kts | 234° |
| 2026-05-07 17:39 | 53.61706 | 9.49610 | 13026 ft | 197 kts | 234° |
| 2026-05-07 17:39 | 53.60900 | 9.47730 | 13444 ft | 198 kts | 234° |
| 2026-05-07 17:39 | 53.60091 | 9.45850 | 13855 ft | 199 kts | 234° |
| 2026-05-07 17:40 | 53.59280 | 9.43961 | 14224 ft | 199 kts | 234° |
| 2026-05-07 17:40 | 53.58464 | 9.42065 | 14581 ft | 200 kts | 234° |
| 2026-05-07 17:40 | 53.57647 | 9.40166 | 14952 ft | 201 kts | 234° |
| 2026-05-07 17:40 | 53.56836 | 9.38279 | 15310 ft | 202 kts | 234° |
| 2026-05-07 17:41 | 53.56008 | 9.36356 | 15682 ft | 203 kts | 234° |
| 2026-05-07 17:41 | 53.55177 | 9.34431 | 16051 ft | 204 kts | 234° |
| 2026-05-07 17:41 | 53.54345 | 9.32499 | 16427 ft | 205 kts | 234° |
| 2026-05-07 17:41 | 53.53559 | 9.30494 | 16767 ft | 207 kts | 245° |
| 2026-05-07 17:42 | 53.53133 | 9.28186 | 17132 ft | 207 kts | 255° |
| 2026-05-07 17:42 | 53.52733 | 9.25858 | 17493 ft | 208 kts | 251° |
| 2026-05-07 17:42 | 53.52236 | 9.23561 | 17877 ft | 209 kts | 249° |
| 2026-05-07 17:42 | 53.51727 | 9.21262 | 18263 ft | 210 kts | 250° |
| 2026-05-07 17:43 | 53.51229 | 9.18944 | 18610 ft | 211 kts | 250° |
| 2026-05-07 17:43 | 53.50729 | 9.16613 | 18937 ft | 213 kts | 250° |
| 2026-05-07 17:43 | 53.50224 | 9.14273 | 19276 ft | 214 kts | 250° |
| 2026-05-07 17:43 | 53.49717 | 9.11931 | 19628 ft | 214 kts | 250° |
| 2026-05-07 17:44 | 53.49207 | 9.09568 | 19970 ft | 215 kts | 250° |
| 2026-05-07 17:44 | 53.48695 | 9.07201 | 20326 ft | 216 kts | 250° |
| 2026-05-07 17:44 | 53.48180 | 9.04833 | 20683 ft | 216 kts | 250° |
| 2026-05-07 17:44 | 53.47669 | 9.02481 | 21021 ft | 218 kts | 250° |
| 2026-05-07 17:45 | 53.47154 | 9.00099 | 21406 ft | 217 kts | 250° |
| 2026-05-07 17:45 | 53.46640 | 8.97730 | 21775 ft | 216 kts | 250° |
| 2026-05-07 17:45 | 53.46125 | 8.95359 | 22144 ft | 216 kts | 250° |
| 2026-05-07 17:45 | 53.45612 | 8.92996 | 22523 ft | 215 kts | 250° |
| 2026-05-07 17:46 | 53.45097 | 8.90635 | 22885 ft | 215 kts | 250° |
| 2026-05-07 17:46 | 53.44584 | 8.88285 | 23246 ft | 215 kts | 250° |
| 2026-05-07 17:46 | 53.44070 | 8.85932 | 23613 ft | 214 kts | 250° |
| 2026-05-07 17:46 | 53.43558 | 8.83589 | 23921 ft | 214 kts | 250° |
| 2026-05-07 17:47 | 53.43046 | 8.81248 | 24219 ft | 213 kts | 250° |
| 2026-05-07 17:47 | 53.42536 | 8.78915 | 24508 ft | 213 kts | 250° |
| 2026-05-07 17:47 | 53.42025 | 8.76588 | 24804 ft | 213 kts | 250° |
| 2026-05-07 17:47 | 53.41514 | 8.74266 | 25091 ft | 212 kts | 250° |
| 2026-05-07 17:48 | 53.41003 | 8.71939 | 25376 ft | 212 kts | 250° |
| 2026-05-07 17:48 | 53.40493 | 8.69619 | 25663 ft | 212 kts | 250° |
| 2026-05-07 17:48 | 53.39982 | 8.67298 | 25945 ft | 212 kts | 250° |
| 2026-05-07 17:48 | 53.39471 | 8.64989 | 26228 ft | 211 kts | 249° |
| 2026-05-07 17:49 | 53.38732 | 8.62868 | 26494 ft | 212 kts | 232° |
| 2026-05-07 17:49 | 53.37798 | 8.60971 | 26775 ft | 211 kts | 232° |
| 2026-05-07 17:49 | 53.36915 | 8.59009 | 27055 ft | 211 kts | 235° |
| 2026-05-07 17:49 | 53.36075 | 8.57001 | 27326 ft | 211 kts | 235° |
| 2026-05-07 17:50 | 53.35225 | 8.55001 | 27605 ft | 210 kts | 234° |
| 2026-05-07 17:50 | 53.34372 | 8.53017 | 27884 ft | 210 kts | 235° |
| 2026-05-07 17:50 | 53.33519 | 8.51031 | 28155 ft | 210 kts | 234° |
| 2026-05-07 17:50 | 53.32670 | 8.49055 | 28426 ft | 209 kts | 234° |
| 2026-05-07 17:51 | 53.31830 | 8.47097 | 28693 ft | 209 kts | 234° |
| 2026-05-07 17:51 | 53.30979 | 8.45118 | 28957 ft | 209 kts | 234° |
| 2026-05-07 17:51 | 53.30132 | 8.43149 | 29225 ft | 208 kts | 234° |
| 2026-05-07 17:51 | 53.29285 | 8.41181 | 29488 ft | 208 kts | 234° |
| 2026-05-07 17:52 | 53.28439 | 8.39215 | 29753 ft | 208 kts | 234° |
| 2026-05-07 17:52 | 53.27883 | 8.37923 | 29932 ft | 207 kts | 234° |
| 2026-05-07 17:52 | 53.27035 | 8.35955 | 30071 ft | 213 kts | 234° |
| 2026-05-07 17:52 | 53.26148 | 8.33899 | 30081 ft | 223 kts | 234° |
| 2026-05-07 17:53 | 53.25224 | 8.31757 | 30082 ft | 232 kts | 234° |
| 2026-05-07 17:53 | 53.23945 | 8.28794 | 30082 ft | 242 kts | 234° |
| 2026-05-07 17:53 | 53.22947 | 8.26488 | 30086 ft | 249 kts | 234° |
| 2026-05-07 17:53 | 53.22253 | 8.24887 | 30086 ft | 253 kts | 234° |
| 2026-05-07 17:54 | 53.21214 | 8.22486 | 30083 ft | 258 kts | 234° |
| 2026-05-07 17:54 | 53.20149 | 8.20030 | 30081 ft | 263 kts | 234° |
| 2026-05-07 17:54 | 53.19070 | 8.17547 | 30081 ft | 266 kts | 234° |
| 2026-05-07 17:54 | 53.17976 | 8.15029 | 30077 ft | 270 kts | 234° |
| 2026-05-07 17:55 | 53.16868 | 8.12482 | 30079 ft | 273 kts | 234° |
| 2026-05-07 17:55 | 53.15748 | 8.09908 | 30081 ft | 275 kts | 234° |
| 2026-05-07 17:55 | 53.14633 | 8.07352 | 30084 ft | 278 kts | 234° |
| 2026-05-07 17:55 | 53.13493 | 8.04740 | 30086 ft | 280 kts | 234° |
| 2026-05-07 17:56 | 53.12342 | 8.02108 | 30082 ft | 282 kts | 234° |
| 2026-05-07 17:56 | 53.11181 | 7.99457 | 30081 ft | 284 kts | 234° |
| 2026-05-07 17:56 | 53.10014 | 7.96787 | 30082 ft | 286 kts | 234° |
| 2026-05-07 17:56 | 53.08835 | 7.94096 | 30086 ft | 288 kts | 234° |
| 2026-05-07 17:57 | 53.07648 | 7.91394 | 30081 ft | 290 kts | 234° |
| 2026-05-07 17:57 | 53.06453 | 7.88675 | 30086 ft | 292 kts | 234° |
| 2026-05-07 17:57 | 53.05265 | 7.85972 | 30080 ft | 293 kts | 234° |
| 2026-05-07 17:57 | 53.04043 | 7.83197 | 30083 ft | 295 kts | 234° |
| 2026-05-07 17:58 | 53.02835 | 7.80456 | 30078 ft | 293 kts | 234° |
| 2026-05-07 17:58 | 53.01635 | 7.77735 | 30076 ft | 293 kts | 234° |
| 2026-05-07 17:58 | 53.00443 | 7.75037 | 30077 ft | 293 kts | 234° |
| 2026-05-07 17:58 | 52.99239 | 7.72314 | 30078 ft | 293 kts | 234° |
| 2026-05-07 17:59 | 52.98034 | 7.69592 | 30083 ft | 293 kts | 234° |
| 2026-05-07 17:59 | 52.96829 | 7.66872 | 30081 ft | 292 kts | 234° |
| 2026-05-07 17:59 | 52.95625 | 7.64156 | 30084 ft | 292 kts | 234° |
| 2026-05-07 17:59 | 52.94421 | 7.61444 | 30084 ft | 292 kts | 234° |
| 2026-05-07 18:00 | 52.93217 | 7.58733 | 30089 ft | 292 kts | 234° |
| 2026-05-07 18:00 | 52.92011 | 7.56020 | 30090 ft | 292 kts | 234° |
| 2026-05-07 18:00 | 52.90808 | 7.53309 | 30086 ft | 292 kts | 234° |
| 2026-05-07 18:00 | 52.89601 | 7.50603 | 30088 ft | 292 kts | 234° |
| 2026-05-07 18:01 | 52.88396 | 7.47904 | 30092 ft | 292 kts | 234° |
| 2026-05-07 18:01 | 52.87188 | 7.45201 | 30094 ft | 292 kts | 234° |
| 2026-05-07 18:01 | 52.85982 | 7.42503 | 30093 ft | 292 kts | 234° |
| 2026-05-07 18:01 | 52.84775 | 7.39806 | 30094 ft | 292 kts | 234° |
| 2026-05-07 18:02 | 52.82359 | 7.34416 | 30097 ft | 291 kts | 234° |
| 2026-05-07 18:02 | 52.81151 | 7.31727 | 30099 ft | 291 kts | 233° |
| 2026-05-07 18:02 | 52.79943 | 7.29041 | 30101 ft | 291 kts | 234° |
| 2026-05-07 18:03 | 52.78738 | 7.26363 | 30099 ft | 291 kts | 233° |
| 2026-05-07 18:03 | 52.77527 | 7.23674 | 30100 ft | 291 kts | 233° |
| 2026-05-07 18:03 | 52.76319 | 7.20995 | 30108 ft | 291 kts | 233° |
| 2026-05-07 18:03 | 52.75107 | 7.18313 | 30108 ft | 291 kts | 233° |
| 2026-05-07 18:04 | 52.73893 | 7.15628 | 30103 ft | 291 kts | 233° |
| 2026-05-07 18:04 | 52.72680 | 7.12949 | 30104 ft | 291 kts | 233° |
| 2026-05-07 18:04 | 52.71468 | 7.10275 | 30099 ft | 291 kts | 233° |
| 2026-05-07 18:04 | 52.70252 | 7.07593 | 30105 ft | 291 kts | 233° |
| 2026-05-07 18:05 | 52.69038 | 7.04918 | 30095 ft | 291 kts | 233° |
| 2026-05-07 18:05 | 52.67839 | 7.02280 | 30093 ft | 292 kts | 233° |
| 2026-05-07 18:05 | 52.66623 | 6.99607 | 30095 ft | 292 kts | 233° |
| 2026-05-07 18:05 | 52.65406 | 6.96936 | 30091 ft | 291 kts | 233° |
| 2026-05-07 18:06 | 52.64188 | 6.94265 | 30090 ft | 292 kts | 233° |
| 2026-05-07 18:06 | 52.62970 | 6.91597 | 30085 ft | 291 kts | 233° |
| 2026-05-07 18:06 | 52.61752 | 6.88930 | 30085 ft | 291 kts | 233° |
| 2026-05-07 18:06 | 52.60534 | 6.86268 | 30081 ft | 291 kts | 233° |
| 2026-05-07 18:07 | 52.59314 | 6.83603 | 30079 ft | 291 kts | 233° |
| 2026-05-07 18:07 | 52.58098 | 6.80948 | 30076 ft | 291 kts | 233° |
| 2026-05-07 18:07 | 52.56880 | 6.78293 | 30073 ft | 291 kts | 233° |
| 2026-05-07 18:07 | 52.55661 | 6.75640 | 30071 ft | 291 kts | 233° |
| 2026-05-07 18:08 | 52.54441 | 6.72984 | 30068 ft | 291 kts | 233° |
| 2026-05-07 18:08 | 52.53226 | 6.70340 | 30070 ft | 291 kts | 233° |
| 2026-05-07 18:08 | 52.52006 | 6.67694 | 30072 ft | 291 kts | 233° |
| 2026-05-07 18:08 | 52.50787 | 6.65049 | 30071 ft | 290 kts | 233° |
| 2026-05-07 18:09 | 52.49570 | 6.62412 | 30071 ft | 290 kts | 233° |
| 2026-05-07 18:09 | 52.48350 | 6.59769 | 30069 ft | 290 kts | 233° |
| 2026-05-07 18:09 | 52.47130 | 6.57132 | 30069 ft | 290 kts | 233° |
| 2026-05-07 18:09 | 52.45911 | 6.54499 | 30072 ft | 290 kts | 233° |
| 2026-05-07 18:10 | 52.44690 | 6.51864 | 30074 ft | 290 kts | 233° |
| 2026-05-07 18:10 | 52.43483 | 6.49262 | 30069 ft | 290 kts | 233° |
| 2026-05-07 18:10 | 52.42248 | 6.46601 | 30069 ft | 290 kts | 233° |
| 2026-05-07 18:10 | 52.41039 | 6.44002 | 30069 ft | 290 kts | 233° |
| 2026-05-07 18:11 | 52.39817 | 6.41375 | 30069 ft | 290 kts | 233° |
| 2026-05-07 18:11 | 52.38993 | 6.39604 | 30069 ft | 290 kts | 233° |
| 2026-05-07 18:11 | 52.37371 | 6.36126 | 30071 ft | 290 kts | 233° |
| 2026-05-07 18:11 | 52.36148 | 6.33506 | 30069 ft | 290 kts | 233° |
| 2026-05-07 18:12 | 52.34923 | 6.30889 | 30072 ft | 290 kts | 233° |
| 2026-05-07 18:12 | 52.33701 | 6.28275 | 30071 ft | 290 kts | 233° |
| 2026-05-07 18:12 | 52.32476 | 6.25660 | 30069 ft | 289 kts | 233° |
| 2026-05-07 18:12 | 52.31252 | 6.23048 | 30067 ft | 289 kts | 233° |
| 2026-05-07 18:13 | 52.30026 | 6.20439 | 30072 ft | 289 kts | 233° |
| 2026-05-07 18:13 | 52.28801 | 6.17830 | 30071 ft | 289 kts | 233° |
| 2026-05-07 18:13 | 52.27576 | 6.15224 | 30071 ft | 289 kts | 233° |
| 2026-05-07 18:13 | 52.26349 | 6.12619 | 30071 ft | 289 kts | 233° |
| 2026-05-07 18:14 | 52.25123 | 6.10017 | 30071 ft | 289 kts | 233° |
| 2026-05-07 18:14 | 52.23896 | 6.07416 | 30075 ft | 289 kts | 232° |
| 2026-05-07 18:14 | 52.22671 | 6.04822 | 29754 ft | 290 kts | 233° |
| 2026-05-07 18:14 | 52.21443 | 6.02223 | 29158 ft | 286 kts | 232° |
| 2026-05-07 18:15 | 52.20240 | 5.99681 | 28569 ft | 281 kts | 233° |
| 2026-05-07 18:15 | 52.19057 | 5.97183 | 27991 ft | 278 kts | 233° |
| 2026-05-07 18:15 | 52.17891 | 5.94722 | 27435 ft | 278 kts | 233° |
| 2026-05-07 18:15 | 52.16691 | 5.92192 | 26876 ft | 279 kts | 233° |
| 2026-05-07 18:16 | 52.15518 | 5.89725 | 26343 ft | 281 kts | 233° |
| 2026-05-07 18:16 | 52.14316 | 5.87195 | 26081 ft | 282 kts | 233° |
| 2026-05-07 18:16 | 52.13108 | 5.84658 | 26082 ft | 285 kts | 233° |
| 2026-05-07 18:16 | 52.11887 | 5.82097 | 26083 ft | 287 kts | 233° |
| 2026-05-07 18:17 | 52.11131 | 5.80508 | 26087 ft | 289 kts | 233° |
| 2026-05-07 18:17 | 52.09967 | 5.78066 | 26084 ft | 291 kts | 233° |
| 2026-05-07 18:17 | 52.09022 | 5.76088 | 26088 ft | 293 kts | 233° |
| 2026-05-07 18:17 | 52.07769 | 5.73464 | 26086 ft | 295 kts | 233° |
| 2026-05-07 18:18 | 52.06506 | 5.70825 | 26086 ft | 297 kts | 232° |
| 2026-05-07 18:18 | 52.05238 | 5.68177 | 26084 ft | 296 kts | 233° |
| 2026-05-07 18:18 | 52.03972 | 5.65537 | 26084 ft | 296 kts | 233° |
| 2026-05-07 18:18 | 52.02706 | 5.62896 | 26084 ft | 296 kts | 232° |
| 2026-05-07 18:19 | 52.01440 | 5.60262 | 26084 ft | 296 kts | 232° |
| 2026-05-07 18:19 | 52.00173 | 5.57626 | 26084 ft | 295 kts | 232° |
| 2026-05-07 18:19 | 51.98909 | 5.55001 | 26084 ft | 295 kts | 232° |
| 2026-05-07 18:19 | 51.97644 | 5.52375 | 26082 ft | 295 kts | 232° |
| 2026-05-07 18:20 | 51.96376 | 5.49745 | 26082 ft | 296 kts | 232° |
| 2026-05-07 18:20 | 51.95128 | 5.47161 | 26082 ft | 295 kts | 232° |
| 2026-05-07 18:20 | 51.93859 | 5.44534 | 26082 ft | 295 kts | 232° |
| 2026-05-07 18:20 | 51.92595 | 5.41923 | 26079 ft | 295 kts | 232° |
| 2026-05-07 18:21 | 51.91326 | 5.39307 | 26082 ft | 295 kts | 232° |
| 2026-05-07 18:21 | 51.90064 | 5.36703 | 26082 ft | 295 kts | 232° |
| 2026-05-07 18:21 | 51.88792 | 5.34082 | 26082 ft | 295 kts | 232° |
| 2026-05-07 18:21 | 51.87522 | 5.31470 | 26083 ft | 295 kts | 232° |
| 2026-05-07 18:22 | 51.86253 | 5.28862 | 26080 ft | 295 kts | 232° |
| 2026-05-07 18:22 | 51.85413 | 5.27136 | 26081 ft | 295 kts | 232° |
| 2026-05-07 18:22 | 51.83716 | 5.23652 | 26079 ft | 295 kts | 232° |
| 2026-05-07 18:22 | 51.82446 | 5.21052 | 26078 ft | 295 kts | 232° |
| 2026-05-07 18:23 | 51.81175 | 5.18449 | 26081 ft | 295 kts | 232° |
| 2026-05-07 18:23 | 51.79911 | 5.15863 | 25939 ft | 292 kts | 232° |
| 2026-05-07 18:23 | 51.78662 | 5.13312 | 25709 ft | 286 kts | 232° |
| 2026-05-07 18:23 | 51.77435 | 5.10807 | 25482 ft | 283 kts | 232° |
| 2026-05-07 18:24 | 51.76216 | 5.08321 | 25256 ft | 282 kts | 232° |
| 2026-05-07 18:24 | 51.74996 | 5.05836 | 25032 ft | 282 kts | 232° |
| 2026-05-07 18:24 | 51.73762 | 5.03321 | 24385 ft | 289 kts | 232° |
| 2026-05-07 18:24 | 51.72513 | 5.00778 | 23733 ft | 288 kts | 232° |
| 2026-05-07 18:25 | 51.71269 | 4.98254 | 22970 ft | 287 kts | 232° |
| 2026-05-07 18:25 | 51.70031 | 4.95741 | 22211 ft | 286 kts | 232° |
| 2026-05-07 18:25 | 51.68786 | 4.93214 | 21469 ft | 288 kts | 232° |
| 2026-05-07 18:25 | 51.67535 | 4.90681 | 20747 ft | 290 kts | 232° |
| 2026-05-07 18:26 | 51.66276 | 4.88132 | 20044 ft | 292 kts | 232° |
| 2026-05-07 18:26 | 51.65026 | 4.85605 | 19370 ft | 294 kts | 232° |
| 2026-05-07 18:26 | 51.63749 | 4.83024 | 18695 ft | 295 kts | 232° |
| 2026-05-07 18:26 | 51.62460 | 4.80435 | 17984 ft | 296 kts | 231° |
| 2026-05-07 18:27 | 51.60851 | 4.78362 | 17206 ft | 300 kts | 208° |
| 2026-05-07 18:27 | 51.58829 | 4.77532 | 16452 ft | 304 kts | 185° |
| 2026-05-07 18:27 | 51.56715 | 4.77698 | 15744 ft | 305 kts | 175° |
| 2026-05-07 18:27 | 51.55288 | 4.77910 | 15276 ft | 306 kts | 176° |
| 2026-05-07 18:28 | 51.52492 | 4.77956 | 15081 ft | 302 kts | 184° |
| 2026-05-07 18:28 | 51.50399 | 4.77775 | 15081 ft | 300 kts | 184° |
| 2026-05-07 18:28 | 51.48315 | 4.77686 | 15075 ft | 300 kts | 182° |
| 2026-05-07 18:28 | 51.46229 | 4.77662 | 15080 ft | 299 kts | 182° |
| 2026-05-07 18:29 | 51.44144 | 4.77604 | 15075 ft | 299 kts | 182° |
| 2026-05-07 18:29 | 51.42070 | 4.77523 | 15074 ft | 298 kts | 182° |
| 2026-05-07 18:29 | 51.39995 | 4.77455 | 15072 ft | 298 kts | 182° |
| 2026-05-07 18:29 | 51.37890 | 4.77391 | 14700 ft | 309 kts | 182° |
| 2026-05-07 18:30 | 51.35729 | 4.77325 | 14172 ft | 307 kts | 182° |
| 2026-05-07 18:30 | 51.33656 | 4.77262 | 13618 ft | 289 kts | 182° |
| 2026-05-07 18:30 | 51.31686 | 4.77198 | 13020 ft | 277 kts | 182° |
| 2026-05-07 18:30 | 51.29805 | 4.77137 | 12448 ft | 271 kts | 182° |
| 2026-05-07 18:31 | 51.27928 | 4.77079 | 11881 ft | 269 kts | 182° |
| 2026-05-07 18:31 | 51.26064 | 4.77020 | 11323 ft | 267 kts | 182° |
| 2026-05-07 18:31 | 51.24224 | 4.77114 | 10764 ft | 265 kts | 171° |
| 2026-05-07 18:31 | 51.22500 | 4.78163 | 10222 ft | 265 kts | 155° |
| 2026-05-07 18:32 | 51.20870 | 4.79534 | 9665 ft | 264 kts | 153° |
| 2026-05-07 18:32 | 51.19268 | 4.80921 | 9073 ft | 261 kts | 152° |
| 2026-05-07 18:32 | 51.17682 | 4.82291 | 8500 ft | 258 kts | 152° |
| 2026-05-07 18:32 | 51.16127 | 4.83624 | 8081 ft | 253 kts | 152° |
| 2026-05-07 18:33 | 51.14582 | 4.84940 | 8076 ft | 252 kts | 152° |
| 2026-05-07 18:33 | 51.13023 | 4.86265 | 8077 ft | 255 kts | 152° |
| 2026-05-07 18:33 | 51.11538 | 4.87807 | 8069 ft | 257 kts | 139° |
| 2026-05-07 18:33 | 51.10320 | 4.89766 | 7547 ft | 240 kts | 133° |
| 2026-05-07 18:34 | 51.09171 | 4.91763 | 6186 ft | 247 kts | 132° |
| 2026-05-07 18:34 | 51.08044 | 4.93722 | 5062 ft | 240 kts | 132° |
| 2026-05-07 18:34 | 51.06918 | 4.95652 | 4067 ft | 235 kts | 132° |
| 2026-05-07 18:34 | 51.05630 | 4.97151 | 3991 ft | 233 kts | 158° |
| 2026-05-07 18:35 | 51.04016 | 4.97359 | 3991 ft | 239 kts | 190° |
| 2026-05-07 18:35 | 51.02543 | 4.96165 | 3989 ft | 242 kts | 221° |
| 2026-05-07 18:35 | 51.01683 | 4.93961 | 3989 ft | 227 kts | 253° |
| 2026-05-07 18:35 | 51.01563 | 4.91613 | 3992 ft | 203 kts | 271° |
| 2026-05-07 18:36 | 51.01487 | 4.89444 | 3993 ft | 193 kts | 259° |
| 2026-05-07 18:36 | 51.01111 | 4.87411 | 3991 ft | 192 kts | 250° |
| 2026-05-07 18:36 | 51.00661 | 4.85415 | 3994 ft | 192 kts | 250° |
| 2026-05-07 18:36 | 51.00238 | 4.83411 | 3989 ft | 192 kts | 251° |
| 2026-05-07 18:37 | 50.99857 | 4.81581 | 3994 ft | 192 kts | 251° |
| 2026-05-07 18:37 | 50.99509 | 4.79916 | 3996 ft | 192 kts | 251° |
| 2026-05-07 18:37 | 50.99088 | 4.77904 | 3994 ft | 192 kts | 251° |
| 2026-05-07 18:37 | 50.98635 | 4.75901 | 3855 ft | 194 kts | 248° |
| 2026-05-07 18:38 | 50.98096 | 4.73936 | 3481 ft | 193 kts | 245° |
| 2026-05-07 18:38 | 50.97534 | 4.72035 | 3282 ft | 191 kts | 244° |
| 2026-05-07 18:38 | 50.96981 | 4.70131 | 2887 ft | 185 kts | 245° |
| 2026-05-07 18:38 | 50.96471 | 4.68356 | 2656 ft | 170 kts | 245° |
| 2026-05-07 18:39 | 50.95997 | 4.66710 | 2438 ft | 159 kts | 245° |
| 2026-05-07 18:39 | 50.95553 | 4.65176 | 2234 ft | 153 kts | 245° |
| 2026-05-07 18:39 | 50.95089 | 4.63582 | 2036 ft | 161 kts | 245° |
| 2026-05-07 18:39 | 50.94627 | 4.61968 | 1829 ft | 164 kts | 245° |
| 2026-05-07 18:40 | 50.94149 | 4.60310 | 1606 ft | 166 kts | 245° |
| 2026-05-07 18:40 | 50.93671 | 4.58648 | 1385 ft | 164 kts | 245° |
| 2026-05-07 18:40 | 50.93219 | 4.57079 | 1185 ft | 149 kts | 245° |
| 2026-05-07 18:40 | 50.92798 | 4.55617 | 972 ft | 143 kts | 246° |
| 2026-05-07 18:41 | 50.92385 | 4.54190 | 779 ft | 141 kts | 246° |
| 2026-05-07 18:41 | 50.91999 | 4.52855 | 600 ft | 122 kts | 246° |
| 2026-05-07 18:41 | 50.91678 | 4.51763 | 448 ft | 99 kts | 246° |
| 2026-05-07 18:41 | 50.91420 | 4.50834 | 317 ft | 87 kts | 246° |
| 2026-05-07 18:42 | 50.91248 | 4.50261 | 247 ft | 88 kts | 246° |
| 2026-05-07 18:42 | 50.91004 | 4.49405 | 180 ft | 75 kts | 245° |
| 2026-05-07 18:42 | 50.90815 | 4.48750 | 179 ft | 57 kts | 246° |
| 2026-05-07 18:42 | 50.90692 | 4.48387 | 179 ft | 27 kts | 231° |
| 2026-05-07 18:43 | 50.90569 | 4.48208 | 179 ft | 19 kts | 216° |
| 2026-05-07 18:43 | 50.90472 | 4.48098 | 179 ft | 14 kts | 215° |
| 2026-05-07 18:43 | 50.90417 | 4.48002 | 179 ft | 10 kts | 244° |
| 2026-05-07 18:43 | 50.90393 | 4.47924 | 178 ft | 6 kts | 244° |
| 2026-05-07 18:44 | 50.90381 | 4.47883 | 178 ft | 3 kts | 245° |
| 2026-05-07 18:44 | 50.90365 | 4.47828 | 178 ft | 10 kts | 245° |
| 2026-05-07 18:44 | 50.90326 | 4.47688 | 178 ft | 18 kts | 246° |
| 2026-05-07 18:44 | 50.90269 | 4.47480 | 178 ft | 16 kts | 243° |
| 2026-05-07 18:45 | 50.90181 | 4.47468 | 178 ft | 13 kts | 156° |
| 2026-05-07 18:45 | 50.90081 | 4.47541 | 178 ft | 17 kts | 154° |
| 2026-05-07 18:45 | 50.89975 | 4.47603 | 178 ft | 14 kts | 194° |
| 2026-05-07 18:45 | 50.89921 | 4.47492 | 178 ft | 15 kts | 245° |
| 2026-05-07 18:46 | 50.89867 | 4.47306 | 178 ft | 19 kts | 246° |
| 2026-05-07 18:46 | 50.89820 | 4.47127 | 178 ft | 17 kts | 248° |
| 2026-05-07 18:46 | 50.89771 | 4.46957 | 178 ft | 17 kts | 244° |
| 2026-05-07 18:46 | 50.89720 | 4.46778 | 178 ft | 19 kts | 246° |
| 2026-05-07 18:47 | 50.89684 | 4.46653 | 178 ft | 7 kts | 231° |
| 2026-05-07 18:47 | 50.89647 | 4.46651 | 178 ft | 5 kts | 158° |
| 2026-05-07 18:47 | 50.89600 | 4.46688 | 178 ft | 8 kts | 153° |
| 2026-05-07 18:47 | 50.89562 | 4.46677 | 178 ft | 4 kts | 222° |
| 2026-05-07 18:48 | 50.89553 | 4.46608 | 178 ft | 7 kts | 236° |
| 2026-05-07 18:48 | 50.89537 | 4.46640 | 178 ft | 5 kts | 90° |
| 2026-05-07 18:48 | 50.89537 | 4.46647 | 178 ft | 0 kts | 90° |